Time;durP1;ratioP1;P1;durP2;ratioP2;P2;SDS_P1;SDS_P2;PMS_P1;PMS_P2;Temp;Humidity;BMP_temperature;BMP_pressure;BME280_temperature;BME280_humidity;BME280_pressure;Samples;Min_cycle;Max_cycle;Signal;HPM_P1;HPM_P2
2021/01/07 00:01:10;;;;;;;7.15;1.20;;;22.50;99.90;;;;;;5030782;28;20125;-74
2021/01/07 00:03:40;;;;;;;6.13;0.60;;;22.70;99.90;;;;;;5047372;23;20060;-75
2021/01/07 00:06:14;;;;;;;4.60;0.95;;;22.40;99.90;;;;;;5029278;28;20037;-74
2021/01/07 00:08:41;;;;;;;;;;;22.50;99.90;;;;;;5035186;28;20565;-74
2021/01/07 00:11:09;;;;;;;4.43;0.47;;;22.90;99.90;;;;;;5049444;28;20351;-74
2021/01/07 00:13:38;;;;;;;2.13;0.32;;;22.60;99.90;;;;;;5050453;28;20041;-74
2021/01/07 00:16:06;;;;;;;2.53;0.60;;;22.50;99.90;;;;;;5049180;28;20079;-74
2021/01/07 00:18:33;;;;;;;5.68;0.50;;;22.40;99.90;;;;;;5051442;28;20067;-75
2021/01/07 00:21:01;;;;;;;5.07;0.77;;;21.90;99.90;;;;;;5049347;28;20116;-74
2021/01/07 00:23:29;;;;;;;3.70;0.30;;;21.80;99.90;;;;;;5042021;28;20451;-74
2021/01/07 00:25:56;;;;;;;4.40;0.38;;;21.90;99.90;;;;;;5048972;28;20050;-74
2021/01/07 00:28:25;;;;;;;2.28;0.50;;;22.10;99.90;;;;;;5051377;28;20021;-74
2021/01/07 00:30:52;;;;;;;4.97;0.60;;;22.20;99.90;;;;;;5032410;28;20029;-74
2021/01/07 00:33:20;;;;;;;5.88;0.60;;;22.50;99.90;;;;;;5051727;28;20041;-74
2021/01/07 00:35:47;;;;;;;7.15;0.93;;;22.60;99.90;;;;;;5049522;28;20159;-76
2021/01/07 00:38:15;;;;;;;5.15;0.70;;;22.30;99.90;;;;;;5051060;28;20060;-75
2021/01/07 00:40:42;;;;;;;5.43;0.70;;;22.50;99.90;;;;;;5049155;28;20027;-75
2021/01/07 00:43:10;;;;;;;7.32;0.80;;;23.00;99.90;;;;;;5066836;23;20057;-76
2021/01/07 00:45:38;;;;;;;4.60;0.90;;;23.10;99.90;;;;;;5049146;28;20045;-75
2021/01/07 00:48:05;;;;;;;6.43;0.80;;;22.50;99.90;;;;;;5051063;28;20033;-74
2021/01/07 00:50:33;;;;;;;6.88;0.73;;;22.00;99.90;;;;;;5043407;28;20036;-76
2021/01/07 00:53:00;;;;;;;4.13;0.63;;;21.70;99.90;;;;;;5044172;28;20036;-75
2021/01/07 00:55:28;;;;;;;2.30;0.20;;;21.40;99.90;;;;;;5047149;28;20025;-75
2021/01/07 00:57:56;;;;;;;3.58;0.57;;;20.90;99.90;;;;;;5028421;28;20067;-77
2021/01/07 01:00:23;;;;;;;3.80;0.60;;;20.70;99.90;;;;;;5032835;28;20017;-76
2021/01/07 01:02:52;;;;;;;1.20;0.30;;;20.20;99.90;;;;;;5030355;28;20030;-76
2021/01/07 01:05:19;;;;;;;3.90;0.45;;;20.00;99.90;;;;;;5047935;28;20500;-75
2021/01/07 01:07:47;;;;;;;2.20;0.20;;;19.90;99.90;;;;;;5043261;28;20487;-75
2021/01/07 01:10:14;;;;;;;1.77;0.25;;;19.90;99.90;;;;;;5042430;28;20032;-75
2021/01/07 01:12:42;;;;;;;1.30;0.20;;;19.90;99.90;;;;;;5032757;28;20099;-75
2021/01/07 01:15:12;;;;;;;2.65;0.35;;;19.90;99.90;;;;;;5040468;28;20044;-75
2021/01/07 01:17:40;;;;;;;2.65;0.20;;;20.10;99.90;;;;;;5057428;23;20103;-74
2021/01/07 01:20:14;;;;;;;2.88;0.47;;;20.10;99.90;;;;;;5027021;28;20022;-75
2021/01/07 01:22:41;;;;;;;;;;;20.30;99.90;;;;;;5026536;28;20478;-75
2021/01/07 01:25:10;;;;;;;2.15;0.30;;;20.20;99.90;;;;;;5018656;28;19962;-75
2021/01/07 01:27:44;;;;;;;2.20;0.30;;;20.10;99.90;;;;;;5015775;28;20026;-74
2021/01/07 01:30:13;;;;;;;2.72;0.32;;;19.80;99.90;;;;;;5021512;28;20022;-75
2021/01/07 01:32:42;;;;;;;1.00;0.20;;;19.70;99.90;;;;;;5029847;28;20042;-74
2021/01/07 01:35:10;;;;;;;3.95;0.65;;;19.50;99.90;;;;;;5016653;28;20040;-76
2021/01/07 01:37:38;;;;;;;1.88;0.35;;;19.60;99.90;;;;;;5032483;28;20053;-77
2021/01/07 01:40:08;;;;;;;2.95;0.30;;;19.30;99.90;;;;;;5032582;28;20053;-78
2021/01/07 01:42:36;;;;;;;1.80;0.20;;;19.30;99.90;;;;;;5026571;28;20044;-77
2021/01/07 01:45:05;;;;;;;1.92;0.50;;;19.30;99.90;;;;;;5027127;28;20053;-77
2021/01/07 01:47:32;;;;;;;2.08;0.22;;;19.40;99.90;;;;;;5030396;28;20045;-77
2021/01/07 01:50:00;;;;;;;1.27;0.30;;;19.30;99.90;;;;;;5033003;28;20029;-78
2021/01/07 01:52:29;;;;;;;1.17;0.20;;;19.30;99.90;;;;;;5034215;28;20033;-79
2021/01/07 01:54:56;;;;;;;5.50;1.00;;;19.00;99.90;;;;;;5030469;28;20372;-77
2021/01/07 01:57:26;;;;;;;2.80;0.50;;;18.80;99.90;;;;;;5014856;28;20026;-77
2021/01/07 01:59:53;;;;;;;3.75;1.02;;;18.90;99.90;;;;;;5014752;28;20498;-77
2021/01/07 02:02:21;;;;;;;9.45;1.30;;;19.00;99.90;;;;;;5025403;28;20033;-78
2021/01/07 02:04:49;;;;;;;5.25;0.95;;;19.00;99.90;;;;;;5030333;28;20134;-80
2021/01/07 02:07:24;;;;;;;3.95;0.90;;;19.30;99.90;;;;;;5032235;28;20387;-79
2021/01/07 02:09:52;;;;;;;3.17;0.60;;;19.50;99.90;;;;;;5032538;28;20100;-77
2021/01/07 02:12:21;;;;;;;5.82;0.70;;;19.60;99.90;;;;;;5025530;28;20034;-79
2021/01/07 02:14:48;;;;;;;2.75;0.50;;;19.70;99.90;;;;;;5025972;28;20112;-78
2021/01/07 02:17:16;;;;;;;6.75;1.10;;;19.80;99.90;;;;;;5074386;22;20096;-80
2021/01/07 02:19:44;;;;;;;3.30;0.45;;;19.80;99.90;;;;;;5068640;22;20053;-80
2021/01/07 02:22:13;;;;;;;5.90;0.40;;;19.90;99.90;;;;;;5043424;28;20398;-79
2021/01/07 02:24:41;;;;;;;4.03;1.05;;;20.00;99.90;;;;;;5029792;23;20068;-79
2021/01/07 02:27:10;;;;;;;5.65;0.50;;;20.20;99.90;;;;;;5053105;28;20052;-80
2021/01/07 02:29:38;;;;;;;2.38;0.30;;;20.30;99.90;;;;;;5047719;28;20020;-78
2021/01/07 02:32:07;;;;;;;2.63;0.50;;;20.40;99.90;;;;;;5049672;28;20172;-78
2021/01/07 02:34:34;;;;;;;5.55;0.60;;;20.40;99.90;;;;;;5041451;22;20053;-78
2021/01/07 02:37:02;;;;;;;4.20;0.45;;;20.30;99.90;;;;;;5021735;28;20033;-78
2021/01/07 02:39:29;;;;;;;1.95;0.40;;;20.10;99.90;;;;;;5032839;28;20440;-79
2021/01/07 02:41:57;;;;;;;5.13;0.52;;;19.70;99.90;;;;;;5028118;28;20025;-78
2021/01/07 02:44:25;;;;;;;2.45;0.40;;;19.40;99.90;;;;;;5031653;28;20029;-79
2021/01/07 02:46:53;;;;;;;3.05;0.52;;;19.30;99.90;;;;;;5030730;28;20017;-78
2021/01/07 02:49:20;;;;;;;5.43;0.95;;;19.10;99.90;;;;;;5040625;22;20486;-79
2021/01/07 02:51:48;;;;;;;3.53;0.63;;;18.80;99.90;;;;;;5031540;28;20115;-79
2021/01/07 02:54:15;;;;;;;6.28;0.98;;;18.80;99.90;;;;;;5030857;28;20033;-79
2021/01/07 02:56:43;;;;;;;2.10;0.30;;;18.70;99.90;;;;;;5032672;28;20068;-79
2021/01/07 02:59:10;;;;;;;2.08;0.30;;;18.80;99.90;;;;;;5016006;28;20040;-80
2021/01/07 03:01:40;;;;;;;3.65;0.63;;;18.80;99.90;;;;;;5020123;28;20041;-78
2021/01/07 03:04:07;;;;;;;1.45;0.28;;;18.80;99.90;;;;;;5013867;28;20026;-79
2021/01/07 03:06:34;;;;;;;2.40;0.32;;;19.00;99.90;;;;;;4999009;28;20069;-78
2021/01/07 03:09:02;;;;;;;4.35;0.57;;;19.10;99.90;;;;;;5017725;28;20026;-78
2021/01/07 03:11:29;;;;;;;3.00;0.50;;;19.30;99.90;;;;;;5019429;28;20517;-79
2021/01/07 03:13:57;;;;;;;0.98;0.20;;;19.50;99.90;;;;;;5013942;28;20478;-78
2021/01/07 03:16:24;;;;;;;6.20;0.45;;;19.70;99.90;;;;;;5018366;28;20534;-79
2021/01/07 03:18:51;;;;;;;2.25;0.40;;;19.90;99.90;;;;;;5013295;28;20030;-79
2021/01/07 03:21:19;;;;;;;3.33;0.68;;;20.10;99.90;;;;;;5001588;28;20191;-78
2021/01/07 03:23:46;;;;;;;5.03;0.35;;;20.20;99.90;;;;;;5035944;22;20053;-79
2021/01/07 03:26:14;;;;;;;4.03;0.50;;;20.30;99.90;;;;;;5021745;28;20022;-79
2021/01/07 03:28:42;;;;;;;1.10;0.20;;;20.90;99.90;;;;;;5010948;28;20492;-78
2021/01/07 03:31:11;;;;;;;4.38;0.95;;;21.10;99.90;;;;;;5016431;28;20033;-79
2021/01/07 03:33:38;;;;;;;2.58;0.40;;;21.30;99.90;;;;;;5012010;28;20087;-77
2021/01/07 03:36:06;;;;;;;4.05;0.50;;;21.30;99.90;;;;;;5019201;28;20549;-78
2021/01/07 03:38:33;;;;;;;2.58;0.32;;;21.30;99.90;;;;;;5006569;28;20038;-78
2021/01/07 03:41:00;;;;;;;0.85;0.15;;;21.20;99.90;;;;;;5021379;28;20025;-77
2021/01/07 03:43:28;;;;;;;1.80;0.10;;;21.20;99.90;;;;;;5013910;28;20083;-77
2021/01/07 03:45:55;;;;;;;4.43;0.63;;;21.20;99.90;;;;;;5025974;28;20030;-78
2021/01/07 03:48:22;;;;;;;2.03;0.20;;;21.20;99.90;;;;;;5011278;28;20025;-78
2021/01/07 03:50:49;;;;;;;2.15;0.40;;;21.40;99.90;;;;;;5013098;28;20029;-79
2021/01/07 03:53:17;;;;;;;2.08;0.35;;;21.50;99.90;;;;;;5013433;28;20046;-78
2021/01/07 03:55:44;;;;;;;3.55;0.50;;;21.70;99.90;;;;;;5024394;28;20100;-79
2021/01/07 03:58:11;;;;;;;4.50;0.45;;;21.70;99.90;;;;;;5010303;28;20049;-79
2021/01/07 04:00:38;;;;;;;1.42;0.32;;;21.60;99.90;;;;;;5018226;28;20029;-80
2021/01/07 04:03:06;;;;;;;3.20;0.20;;;21.80;99.90;;;;;;5025471;28;20029;-78
2021/01/07 04:05:33;;;;;;;2.17;0.30;;;21.90;99.90;;;;;;5017006;28;20018;-82
2021/01/07 04:08:00;;;;;;;5.68;1.00;;;21.70;99.90;;;;;;5015231;28;20038;-79
2021/01/07 04:10:28;;;;;;;4.60;0.68;;;21.80;99.90;;;;;;5013166;28;20068;-79
2021/01/07 04:12:55;;;;;;;6.10;1.25;;;21.80;99.90;;;;;;5014510;28;20072;-81
2021/01/07 04:15:22;;;;;;;2.67;0.65;;;21.80;99.90;;;;;;5016149;28;20031;-80
2021/01/07 04:17:49;;;;;;;4.60;0.50;;;21.70;99.90;;;;;;5009951;28;20030;-81
2021/01/07 04:20:17;;;;;;;7.88;1.08;;;21.50;99.90;;;;;;5014309;28;20037;-82
2021/01/07 04:22:44;;;;;;;4.75;0.60;;;21.40;99.90;;;;;;5014440;28;20022;-80
2021/01/07 04:25:12;;;;;;;3.90;0.90;;;21.50;99.90;;;;;;5063914;23;20060;-79
2021/01/07 04:27:39;;;;;;;8.77;0.70;;;21.50;99.90;;;;;;5051639;22;20133;-79
2021/01/07 04:30:07;;;;;;;5.78;0.43;;;21.50;99.90;;;;;;5029710;28;20099;-81
2021/01/07 04:32:35;;;;;;;3.90;0.75;;;21.50;99.90;;;;;;5027159;22;20058;-80
2021/01/07 04:35:03;;;;;;;9.27;1.13;;;21.30;99.90;;;;;;5009535;28;20026;-79
2021/01/07 04:37:30;;;;;;;7.55;0.88;;;21.40;99.90;;;;;;5003235;28;20068;-82
2021/01/07 04:39:58;;;;;;;4.88;0.82;;;21.30;99.90;;;;;;5009172;28;20033;-80
2021/01/07 04:42:26;;;;;;;7.88;0.43;;;21.20;99.90;;;;;;5016972;23;20054;-81
2021/01/07 04:44:54;;;;;;;7.22;0.85;;;21.20;99.90;;;;;;5012311;28;20539;-82
2021/01/07 04:47:22;;;;;;;4.65;0.60;;;21.10;99.90;;;;;;5012839;28;20116;-80
2021/01/07 04:49:52;;;;;;;3.80;0.55;;;21.10;99.90;;;;;;5026492;28;20104;-80
2021/01/07 04:52:19;;;;;;;7.88;0.75;;;21.10;99.90;;;;;;5021740;28;20034;-80
2021/01/07 04:54:46;;;;;;;14.18;1.75;;;21.40;99.90;;;;;;5012632;28;20030;-81
2021/01/07 04:57:17;;;;;;;7.93;1.58;;;21.60;99.90;;;;;;5023636;23;20045;-79
2021/01/07 04:59:44;;;;;;;8.45;1.45;;;21.70;99.90;;;;;;5015030;28;20022;-79
2021/01/07 05:02:14;;;;;;;6.47;1.23;;;21.50;99.90;;;;;;5033967;28;20025;-81
2021/01/07 05:04:52;;;;;;;8.75;1.50;;;21.50;99.90;;;;;;5006671;28;20037;-79
2021/01/07 05:07:21;;;;;;;17.45;8.18;;;21.50;99.90;;;;;;5031265;28;20029;-82
2021/01/07 05:10:00;;;;;;;7.72;1.00;;;21.60;99.90;;;;;;5014786;28;20479;-80
2021/01/07 05:12:28;;;;;;;3.88;1.15;;;21.50;99.90;;;;;;5014616;28;20069;-79
2021/01/07 05:14:55;;;;;;;3.78;0.60;;;21.60;99.90;;;;;;5015175;28;20026;-83
2021/01/07 05:17:22;;;;;;;6.82;1.23;;;21.80;99.90;;;;;;5017335;28;20077;-78
2021/01/07 05:19:50;;;;;;;6.15;0.85;;;22.00;99.90;;;;;;5015113;28;20018;-80
2021/01/07 05:22:17;;;;;;;6.38;0.50;;;22.40;99.90;;;;;;5032924;28;20103;-81
2021/01/07 05:24:44;;;;;;;7.15;0.57;;;22.60;99.90;;;;;;5021372;28;20133;-80
2021/01/07 05:27:15;;;;;;;8.57;1.05;;;22.70;99.90;;;;;;5027932;28;20502;-81
2021/01/07 05:29:44;;;;;;;6.38;0.82;;;22.70;99.90;;;;;;5033446;28;20026;-79
2021/01/07 05:32:12;;;;;;;6.60;1.02;;;22.50;99.90;;;;;;5040291;23;20053;-78
2021/01/07 05:34:50;;;;;;;7.30;0.55;;;22.40;99.90;;;;;;5051581;28;20048;-81
2021/01/07 05:37:19;;;;;;;3.40;0.57;;;22.20;99.90;;;;;;5044260;28;20017;-79
2021/01/07 05:39:50;;;;;;;6.45;1.00;;;22.00;99.90;;;;;;5049003;28;20386;-79
2021/01/07 05:42:18;;;;;;;10.35;0.85;;;21.90;99.90;;;;;;5033997;28;20033;-78
2021/01/07 05:44:49;;;;;;;9.32;0.82;;;21.80;99.90;;;;;;5016128;28;20021;-78
2021/01/07 05:47:30;;;;;;;7.15;0.98;;;22.00;99.90;;;;;;5036745;28;20021;-79
2021/01/07 05:49:58;;;;;;;7.68;0.90;;;22.20;99.90;;;;;;5051756;28;20026;-76
2021/01/07 05:52:29;;;;;;;8.43;1.17;;;21.90;99.90;;;;;;5053532;28;20021;-78
2021/01/07 05:54:59;;;;;;;5.68;1.08;;;21.60;99.90;;;;;;5051677;28;20504;-78
2021/01/07 05:57:29;;;;;;;7.95;1.02;;;21.50;99.90;;;;;;5053908;28;20025;-80
2021/01/07 05:59:57;;;;;;;8.63;1.13;;;21.30;99.90;;;;;;5051809;28;20474;-77
2021/01/07 06:02:27;;;;;;;6.38;1.50;;;21.10;99.90;;;;;;5034733;28;20041;-77
2021/01/07 06:04:56;;;;;;;7.20;1.20;;;21.10;99.90;;;;;;5044330;28;20110;-78
2021/01/07 06:07:28;;;;;;;15.68;1.27;;;20.90;99.90;;;;;;5052224;28;20025;-77
2021/01/07 06:09:56;;;;;;;9.98;1.00;;;20.90;99.90;;;;;;5048812;28;20033;-76
2021/01/07 06:12:25;;;;;;;5.72;0.70;;;20.90;99.90;;;;;;5048006;28;20401;-78
2021/01/07 06:14:53;;;;;;;3.83;0.90;;;20.90;99.90;;;;;;5051066;28;20031;-77
2021/01/07 06:17:23;;;;;;;5.32;0.82;;;20.80;99.90;;;;;;5053129;28;20121;-76
2021/01/07 06:19:53;;;;;;;6.43;1.00;;;20.80;99.90;;;;;;5046235;28;20032;-77
2021/01/07 06:22:22;;;;;;;3.30;0.40;;;20.70;99.90;;;;;;5046188;28;20555;-77
2021/01/07 06:24:56;;;;;;;5.90;1.33;;;20.70;99.90;;;;;;5049972;28;20041;-79
2021/01/07 06:27:25;;;;;;;;;;;20.70;99.90;;;;;;5053549;28;20035;-76
2021/01/07 06:30:12;;;;;;;5.20;0.30;;;20.90;99.90;;;;;;5050980;28;19963;-75
2021/01/07 06:32:40;;;;;;;2.30;0.35;;;21.00;99.90;;;;;;5023943;23;20064;-76
2021/01/07 06:35:13;;;;;;;2.83;0.80;;;21.00;99.90;;;;;;5056284;23;20049;-77
2021/01/07 06:37:42;;;;;;;2.50;0.40;;;21.10;99.90;;;;;;5034241;28;20100;-77
2021/01/07 06:40:12;;;;;;;5.00;0.90;;;21.20;99.90;;;;;;5048961;23;20160;-76
2021/01/07 06:42:41;;;;;;;5.68;0.40;;;21.10;99.90;;;;;;5030456;28;20022;-78
2021/01/07 06:45:13;;;;;;;3.67;0.40;;;21.00;99.90;;;;;;5023823;28;20018;-80
2021/01/07 06:47:42;;;;;;;4.85;1.25;;;21.00;99.90;;;;;;5025149;23;20119;-79
2021/01/07 06:50:10;;;;;;;2.65;0.63;;;21.10;99.90;;;;;;5026508;28;20068;-81
2021/01/07 06:52:43;;;;;;;3.08;0.40;;;21.20;99.90;;;;;;5012767;28;20060;-80
2021/01/07 06:55:12;;;;;;;3.42;0.47;;;21.30;99.90;;;;;;5027056;28;20052;-81
2021/01/07 06:57:45;;;;;;;3.03;0.60;;;21.30;99.90;;;;;;5031680;28;20031;-81
2021/01/07 07:00:19;;;;;;;2.90;0.30;;;21.00;99.90;;;;;;5029813;28;20021;-80
2021/01/07 07:03:03;;;;;;;1.97;0.50;;;20.80;99.90;;;;;;5032414;28;20026;-84
2021/01/07 07:05:40;;;;;;;2.20;0.32;;;20.60;99.90;;;;;;5047975;23;20049;-84
2021/01/07 07:08:16;;;;;;;2.53;0.57;;;20.60;99.90;;;;;;5032360;28;20048;-81
2021/01/07 07:10:54;;;;;;;3.47;0.30;;;20.70;99.90;;;;;;5040423;28;20547;-81
2021/01/07 07:13:28;;;;;;;4.43;1.23;;;21.00;99.90;;;;;;5051163;28;20497;-81
2021/01/07 07:16:02;;;;;;;3.15;0.50;;;20.80;99.90;;;;;;5050057;28;20036;-84
2021/01/07 07:18:35;;;;;;;;;;;20.80;99.90;;;;;;5033052;28;20068;-84
2021/01/07 07:21:24;;;;;;;2.50;0.30;;;20.90;99.90;;;;;;5032007;28;19984;-81
2021/01/07 07:23:56;;;;;;;2.92;0.63;;;20.60;99.90;;;;;;5040252;28;20659;-80
2021/01/07 07:26:38;;;;;;;2.25;0.40;;;20.50;99.90;;;;;;5032258;28;20082;-80
2021/01/07 07:29:11;;;;;;;4.00;0.50;;;20.50;99.90;;;;;;5051988;28;20078;-81
2021/01/07 07:31:48;;;;;;;4.57;0.82;;;20.30;99.90;;;;;;5034063;28;20052;-80
2021/01/07 07:34:27;;;;;;;3.15;0.35;;;20.30;99.90;;;;;;5051239;28;20037;-78
2021/01/07 07:36:54;;;;;;;5.28;0.63;;;20.20;99.90;;;;;;5041971;22;20029;-80
2021/01/07 07:39:27;;;;;;;5.50;0.50;;;20.20;99.90;;;;;;5032076;28;20456;-82
2021/01/07 07:42:09;;;;;;;5.28;0.50;;;20.20;99.90;;;;;;5050788;28;20455;-81
2021/01/07 07:44:36;;;;;;;5.18;0.75;;;20.10;99.90;;;;;;5015326;28;20021;-81
2021/01/07 07:47:04;;;;;;;8.52;1.40;;;20.10;99.90;;;;;;5051386;28;20091;-81
2021/01/07 07:49:31;;;;;;;6.05;0.88;;;20.10;99.90;;;;;;5050728;28;20509;-81
2021/01/07 07:51:58;;;;;;;3.40;0.60;;;20.00;99.90;;;;;;5047440;28;20029;-81
2021/01/07 07:54:25;;;;;;;5.45;0.80;;;19.90;99.90;;;;;;5031710;28;20052;-81
2021/01/07 07:57:02;;;;;;;6.40;0.90;;;19.90;99.90;;;;;;5031101;28;20439;-80
2021/01/07 07:59:29;;;;;;;4.90;0.77;;;19.90;99.90;;;;;;5032852;28;20060;-80
2021/01/07 08:01:57;;;;;;;12.15;1.33;;;20.00;99.90;;;;;;5051196;28;20028;-80
2021/01/07 08:04:26;;;;;;;5.88;0.63;;;20.00;99.90;;;;;;5051388;28;20029;-79
2021/01/07 08:06:53;;;;;;;4.07;0.50;;;19.90;99.90;;;;;;5035825;28;20029;-80
2021/01/07 08:09:22;;;;;;;4.07;0.73;;;19.90;99.90;;;;;;5039418;28;20406;-81
2021/01/07 08:11:53;;;;;;;5.53;0.75;;;19.80;99.90;;;;;;5049850;28;20025;-80
2021/01/07 08:14:26;;;;;;;7.15;0.70;;;19.80;99.90;;;;;;5031707;28;20037;-82
2021/01/07 08:16:59;;;;;;;5.60;0.77;;;19.80;99.90;;;;;;5031429;28;20437;-81
2021/01/07 08:19:34;;;;;;;5.32;0.70;;;19.90;99.90;;;;;;5033209;28;20052;-81
2021/01/07 08:22:03;;;;;;;8.57;1.08;;;19.90;99.90;;;;;;5049499;28;20107;-81
2021/01/07 08:24:31;;;;;;;6.72;2.30;;;19.80;99.90;;;;;;5051416;28;20028;-81
2021/01/07 08:27:11;;;;;;;8.73;1.73;;;19.80;99.90;;;;;;5040374;28;20101;-81
2021/01/07 08:29:40;;;;;;;5.85;0.75;;;19.70;99.90;;;;;;5035785;28;20098;-81
2021/01/07 08:32:12;;;;;;;6.82;0.82;;;19.70;99.90;;;;;;5050853;28;20055;-81
2021/01/07 08:34:39;;;;;;;6.53;1.20;;;19.70;99.90;;;;;;5052929;28;20118;-80
2021/01/07 08:37:11;;;;;;;4.78;0.50;;;19.70;99.90;;;;;;5054287;28;20029;-81
2021/01/07 08:39:40;;;;;;;7.03;1.15;;;19.70;99.90;;;;;;5068198;22;20052;-80
2021/01/07 08:42:08;;;;;;;7.07;1.23;;;19.80;99.90;;;;;;5057059;22;20111;-82
2021/01/07 08:44:37;;;;;;;6.18;1.45;;;19.80;99.90;;;;;;5038608;28;20017;-81
2021/01/07 08:47:19;;;;;;;14.85;1.70;;;19.80;99.90;;;;;;5051680;23;20072;-81
2021/01/07 08:49:46;;;;;;;9.95;1.55;;;19.60;99.90;;;;;;5034263;28;20022;-82
2021/01/07 08:52:14;;;;;;;11.40;2.00;;;19.20;99.90;;;;;;5041603;28;20048;-81
2021/01/07 08:57:12;;;;;;;12.02;2.10;;;19.00;99.90;;;;;;5066386;22;20064;-79
2021/01/07 08:59:40;;;;;;;16.23;2.93;;;18.90;99.90;;;;;;5054214;28;20441;-79
2021/01/07 09:02:08;;;;;;;16.15;2.17;;;19.00;99.90;;;;;;5052030;28;20370;-80
2021/01/07 09:04:40;;;;;;;18.25;2.53;;;18.90;99.90;;;;;;5046840;28;20100;-79
2021/01/07 09:07:14;;;;;;;14.27;2.38;;;19.00;99.90;;;;;;5025131;28;20028;-79
2021/01/07 09:09:45;;;;;;;17.83;2.97;;;19.10;99.90;;;;;;5049440;28;20032;-79
2021/01/07 09:12:17;;;;;;;20.38;2.63;;;19.10;99.90;;;;;;5066815;22;20057;-79
2021/01/07 09:14:49;;;;;;;16.40;2.63;;;19.10;99.90;;;;;;5034259;28;20112;-79
2021/01/07 09:17:18;;;;;;;14.52;2.58;;;19.20;99.90;;;;;;5035127;28;20021;-79
2021/01/07 09:19:46;;;;;;;13.68;1.80;;;19.20;99.90;;;;;;5054083;28;20227;-80
2021/01/07 09:22:24;;;;;;;12.80;2.30;;;19.20;99.90;;;;;;5053403;28;20019;-79
2021/01/07 09:24:53;;;;;;;15.38;2.47;;;19.20;99.90;;;;;;5035968;28;20436;-79
2021/01/07 09:27:22;;;;;;;12.80;2.95;;;19.20;99.90;;;;;;5031330;28;20060;-79
2021/01/07 09:29:50;;;;;;;11.60;2.10;;;19.20;99.90;;;;;;5042167;28;20017;-79
2021/01/07 09:32:17;;;;;;;16.05;3.10;;;19.30;99.90;;;;;;5054225;28;20055;-79
2021/01/07 09:34:46;;;;;;;12.75;2.17;;;19.30;99.90;;;;;;5044781;28;20021;-78
2021/01/07 09:37:16;;;;;;;13.68;2.03;;;19.30;99.90;;;;;;5034036;28;20022;-79
2021/01/07 09:39:45;;;;;;;11.68;1.75;;;19.30;99.90;;;;;;5038477;28;20402;-79
2021/01/07 09:42:13;;;;;;;13.25;2.38;;;19.30;99.90;;;;;;5053985;28;20498;-80
2021/01/07 09:44:40;;;;;;;17.10;1.92;;;19.30;99.90;;;;;;5060621;22;20135;-79
2021/01/07 09:47:08;;;;;;;12.85;1.88;;;19.30;99.90;;;;;;5035911;28;20032;-79
2021/01/07 09:49:36;;;;;;;15.52;3.08;;;19.30;99.90;;;;;;5053559;28;20025;-79
2021/01/07 09:52:05;;;;;;;14.65;2.35;;;19.40;99.90;;;;;;5053004;28;20490;-81
2021/01/07 09:54:33;;;;;;;13.00;1.73;;;19.40;99.90;;;;;;5043762;28;20036;-79
2021/01/07 09:57:02;;;;;;;11.50;2.08;;;19.40;99.90;;;;;;5053158;28;20096;-78
2021/01/07 09:59:30;;;;;;;16.35;2.05;;;19.40;99.90;;;;;;5050165;28;20110;-78
2021/01/07 10:01:59;;;;;;;15.90;2.90;;;19.40;99.90;;;;;;5053650;28;20162;-78
2021/01/07 10:04:28;;;;;;;16.50;2.67;;;19.40;99.90;;;;;;5053796;28;20505;-79
2021/01/07 10:06:55;;;;;;;17.30;3.65;;;19.40;99.90;;;;;;5053401;28;20036;-79
2021/01/07 10:09:23;;;;;;;16.90;2.97;;;19.20;99.90;;;;;;5029463;28;20191;-80
2021/01/07 10:11:58;;;;;;;17.65;3.40;;;18.90;99.90;;;;;;5053487;28;20032;-80
2021/01/07 10:14:28;;;;;;;15.23;2.22;;;18.60;99.90;;;;;;5054008;28;20041;-80
2021/01/07 10:17:03;;;;;;;14.95;2.80;;;18.50;99.90;;;;;;5052861;28;20393;-80
2021/01/07 10:19:40;;;;;;;20.25;3.15;;;18.40;99.90;;;;;;5048448;28;20108;-80
2021/01/07 10:22:08;;;;;;;21.63;4.50;;;18.40;99.90;;;;;;5052463;28;20025;-80
2021/01/07 10:24:41;;;;;;;22.98;3.28;;;18.30;99.90;;;;;;5053773;28;20099;-80
2021/01/07 10:27:10;;;;;;;19.05;3.97;;;18.40;99.90;;;;;;5052700;28;20032;-79
2021/01/07 10:29:39;;;;;;;25.60;3.58;;;18.30;99.90;;;;;;5052853;28;20405;-81
2021/01/07 10:32:09;;;;;;;19.15;2.97;;;18.10;99.90;;;;;;5052875;28;20481;-81
2021/01/07 10:34:41;;;;;;;16.00;2.90;;;18.20;99.90;;;;;;5041453;28;20029;-81
2021/01/07 10:37:10;;;;;;;23.40;3.40;;;18.30;99.90;;;;;;5040687;28;20087;-78
2021/01/07 10:39:39;;;;;;;22.83;2.78;;;18.30;99.90;;;;;;5052683;28;20382;-79
2021/01/07 10:42:17;;;;;;;22.42;4.43;;;18.50;99.90;;;;;;5049245;28;20017;-79
2021/01/07 10:44:46;;;;;;;19.80;3.55;;;18.50;99.90;;;;;;5032909;28;20463;-79
2021/01/07 10:47:16;;;;;;;16.38;3.25;;;18.60;99.90;;;;;;5049394;22;20141;-80
2021/01/07 10:49:45;;;;;;;11.13;1.92;;;18.60;99.90;;;;;;5039721;22;20102;-80
2021/01/07 10:52:36;;;;;;;15.77;2.70;;;18.60;99.90;;;;;;5030854;28;20104;-80
2021/01/07 10:55:26;;;;;;;11.27;2.13;;;18.70;99.90;;;;;;5030797;23;20379;-82
2021/01/07 10:58:34;;;;;;;13.60;2.20;;;18.70;99.90;;;;;;5012268;28;20454;-86
2021/01/07 11:01:19;;;;;;;25.88;2.47;;;18.80;99.90;;;;;;5002525;28;20042;-81
2021/01/07 11:03:55;;;;;;;14.60;2.00;;;18.80;99.90;;;;;;5025896;23;20533;-81
2021/01/07 11:06:27;;;;;;;9.95;2.25;;;18.80;99.90;;;;;;5013031;28;20441;-81
2021/01/07 11:09:04;;;;;;;11.23;1.67;;;18.80;99.90;;;;;;5022272;28;20029;-79
2021/01/07 11:11:44;;;;;;;14.07;3.10;;;18.80;99.90;;;;;;4975091;28;20072;-80
2021/01/07 11:14:37;;;;;;;14.27;2.13;;;18.80;99.90;;;;;;4999422;28;20070;-80
2021/01/07 11:17:13;;;;;;;23.13;3.00;;;18.70;99.90;;;;;;5012869;28;20017;-79
2021/01/07 11:19:42;;;;;;;17.30;2.65;;;18.70;99.90;;;;;;5040327;23;20145;-80
2021/01/07 11:22:27;;;;;;;13.77;2.75;;;18.80;99.90;;;;;;5033223;28;20052;-81
2021/01/07 11:24:57;;;;;;;16.08;2.08;;;18.80;99.90;;;;;;5031191;28;20033;-80
2021/01/07 11:27:26;;;;;;;10.82;1.50;;;18.80;99.90;;;;;;5031751;28;20540;-76
2021/01/07 11:29:54;;;;;;;11.20;2.25;;;18.80;99.90;;;;;;5028253;28;20057;-79
2021/01/07 11:32:22;;;;;;;14.68;2.80;;;18.70;99.90;;;;;;5020302;28;20359;-79
2021/01/07 11:34:50;;;;;;;17.23;2.72;;;18.60;99.90;;;;;;5024343;28;20509;-79
2021/01/07 11:37:48;;;;;;;15.55;2.15;;;18.70;99.90;;;;;;5029392;28;20479;-78
2021/01/07 11:40:34;;;;;;;12.07;2.75;;;18.70;99.90;;;;;;5030084;28;20049;-80
2021/01/07 11:43:41;;;;;;;19.10;2.75;;;18.70;99.90;;;;;;5031339;28;20096;-79
2021/01/07 11:46:13;;;;;;;14.15;2.13;;;18.60;99.90;;;;;;5025291;28;20116;-80
2021/01/07 11:48:45;;;;;;;8.43;1.40;;;18.60;99.90;;;;;;5023429;28;20421;-81
2021/01/07 11:51:13;;;;;;;12.02;1.88;;;18.70;99.90;;;;;;5020750;28;20034;-79
2021/01/07 11:53:43;;;;;;;18.58;2.88;;;18.80;99.90;;;;;;5067352;23;20424;-79
2021/01/07 11:56:12;;;;;;;12.75;2.13;;;18.70;99.90;;;;;;5051799;28;20521;-79
2021/01/07 11:58:45;;;;;;;11.52;1.50;;;18.70;99.90;;;;;;5055411;28;20025;-78
2021/01/07 12:01:12;;;;;;;13.10;1.42;;;18.60;99.90;;;;;;5030128;28;20036;-78
2021/01/07 12:03:40;;;;;;;11.40;1.48;;;18.60;99.90;;;;;;5020184;28;20029;-78
2021/01/07 12:06:08;;;;;;;10.10;1.65;;;18.60;99.90;;;;;;5018269;28;20545;-78
2021/01/07 12:09:14;;;;;;;9.35;1.85;;;18.70;99.90;;;;;;5029752;28;20025;-78
2021/01/07 12:11:54;;;;;;;;;;;18.60;99.90;;;;;;4997500;28;20040;-78
2021/01/07 12:14:26;;;;;;;13.25;2.22;;;18.60;99.90;;;;;;5019397;28;19924;-79
2021/01/07 12:16:54;;;;;;;12.50;1.80;;;18.60;99.90;;;;;;5024132;28;20398;-78
2021/01/07 12:19:22;;;;;;;14.07;2.08;;;18.60;99.90;;;;;;5020657;28;20022;-78
2021/01/07 12:21:50;;;;;;;10.95;1.70;;;18.50;99.90;;;;;;5001454;28;20498;-78
2021/01/07 12:24:20;;;;;;;18.30;1.70;;;18.40;99.90;;;;;;5020050;28;20022;-78
2021/01/07 12:26:49;;;;;;;18.23;2.53;;;18.50;99.90;;;;;;5025098;28;20014;-78
2021/01/07 12:29:23;;;;;;;12.07;1.98;;;18.50;99.90;;;;;;5027975;28;20175;-78
2021/01/07 12:31:50;;;;;;;;;;;18.50;99.90;;;;;;5030169;28;20017;-78
2021/01/07 12:34:39;;;;;;;11.48;1.33;;;18.60;99.90;;;;;;5028941;28;19928;-78
2021/01/07 12:37:21;;;;;;;11.07;2.20;;;18.60;99.90;;;;;;5040345;28;20021;-78
2021/01/07 12:40:09;;;;;;;12.98;2.85;;;18.50;99.90;;;;;;5015281;28;20034;-78
2021/01/07 12:42:44;;;;;;;9.65;1.90;;;18.50;99.90;;;;;;5026254;28;20033;-78
2021/01/07 12:45:17;;;;;;;9.32;1.20;;;18.60;99.90;;;;;;5030310;28;20040;-78
2021/01/07 12:47:45;;;;;;;20.10;4.18;;;18.50;99.90;;;;;;5022455;28;20029;-78
2021/01/07 12:50:13;;;;;;;11.88;1.40;;;18.60;99.90;;;;;;5034294;28;20523;-78
2021/01/07 12:52:41;;;;;;;14.23;2.08;;;18.60;99.90;;;;;;5033622;22;20360;-79
2021/01/07 12:55:09;;;;;;;12.75;1.40;;;18.60;99.90;;;;;;5048679;23;20126;-78
2021/01/07 12:58:01;;;;;;;13.68;1.92;;;18.50;99.90;;;;;;5042200;22;20049;-78
2021/01/07 13:00:34;;;;;;;11.45;2.05;;;18.50;99.90;;;;;;5007991;23;20055;-79
2021/01/07 13:03:16;;;;;;;13.27;2.35;;;18.50;99.90;;;;;;5030479;28;20032;-78
2021/01/07 13:05:58;;;;;;;11.10;1.23;;;18.60;99.90;;;;;;5021486;28;20479;-78